Terminal Aerodrome Forecast
Issued by NWS Los Angeles, CA

Home | Current Version | Previous Version | Text Only | Print | Product List | Glossary On
Versions: 1 2 3 4 5 6 7 8 9 10 11 12 13 14 15 16 17 18 19 20 21 22 23 24 25 26
000
FTUS46 KLOX 251700 RRA
TAFSMX
TAF
KSMX 251739Z 2518/2618 VRB05KT P6SM SCT010
     FM252000 31010KT P6SM SKC
     FM260300 VRB03KT P6SM SKC
     FM260500 VRB03KT P6SM OVC007
     FM260900 VRB03KT 2SM BR OVC005
     FM261300 VRB03KT 1/2SM FG VV002
     FM261600 VRB03KT 5SM BR OVC008=

USA.gov is the U.S. government's official web portal to all federal, state and local government web resources and services.